Bourbon Liberty 309 — FIRR — position and weather

sailwx.info

Track history (hours):
 
Tides and Currents Weather Stations Pressure Air Temp Water Temp Dewpoint Dewpoint Depression Visibility Wind Speed Wind Dir Waves Ship Positions

Bourbon Liberty 309

Last reported at 2017-Sep-20 21:01 UTC. Time now 2017-Sep-20 23:47 UTC.
Position S 05°18' E 011°28'.

Length 66 m; draft 4.5 m.

Type: Other ship. MMSI: 228057800.

Date/timePositionNaut miles runAvg speedWind from/ knotsBaromVisibWave heightAir tempDewpointWater temp
2017-Sep-20 21:01S 05°18' E 011°28'2 4.3
2017-Sep-20 20:30S 05°19' E 011°27'2 4.3
2017-Sep-20 20:00S 05°20' E 011°25'0 0.3
2017-Sep-20 19:31S 05°21' E 011°25'0 0.5
2017-Sep-20 19:00S 05°21' E 011°25'0 0.5
2017-Sep-20 18:30S 05°21' E 011°26'0 0.5
2017-Sep-20 17:59S 05°21' E 011°26'2 3.5
2017-Sep-20 17:27S 05°22' E 011°27'0 0.9
2017-Sep-20 16:57S 05°23' E 011°27'0 0.0
2017-Sep-20 16:30S 05°23' E 011°27'0 0.0
2017-Sep-20 15:55S 05°23' E 011°27'0 0.0
2017-Sep-20 15:29S 05°23' E 011°27'0 0.0
2017-Sep-20 15:00S 05°23' E 011°27'0 0.4
2017-Sep-20 14:00S 05°23' E 011°27'0 0.9
2017-Sep-20 13:30S 05°22' E 011°27'0 0.4
2017-Sep-20 13:01S 05°22' E 011°27'0 0.4
2017-Sep-20 12:30S 05°23' E 011°27'0 0.4
2017-Sep-20 12:00S 05°23' E 011°27'0 0.9
2017-Sep-20 11:30S 05°23' E 011°27'2 4.9
2017-Sep-20 11:00S 05°21' E 011°29'2 4.2
2017-Sep-20 10:30S 05°19' E 011°30'2 4.1
2017-Sep-20 09:59S 05°18' E 011°32'2 3.3
2017-Sep-20 09:28S 05°17' E 011°34'1 0.2
2017-Sep-20 06:14S 05°17' E 011°34'0 0.9
2017-Sep-20 05:59S 05°17' E 011°34'0 0.7
2017-Sep-20 05:25S 05°16' E 011°34'0 0.2
2017-Sep-20 05:00S 05°16' E 011°34'1 2.8
2017-Sep-20 04:27S 05°15' E 011°33'0 0.6
2017-Sep-20 03:55S 05°15' E 011°34'0 0.6
2017-Sep-20 03:30S 05°16' E 011°34'0 0.5
2017-Sep-20 02:57S 05°16' E 011°34'0 0.6
2017-Sep-20 02:30S 05°16' E 011°34'0 0.4
2017-Sep-20 01:19S 05°15' E 011°34'0 0.6
2017-Sep-20 00:36S 05°15' E 011°34'0 0.6
2017-Sep-20 00:24S 05°15' E 011°34'0 0.6
2017-Sep-19 23:58S 05°15' E 011°35'1 2.5
2017-Sep-19 23:30S 05°16' E 011°34'2 3.7
2017-Sep-19 23:00S 05°16' E 011°32'0 0.7
2017-Sep-19 22:30S 05°16' E 011°32'0 0.7
2017-Sep-19 22:00S 05°16' E 011°32'0 0.6
2017-Sep-19 21:30S 05°16' E 011°33'0 0.6
2017-Sep-19 21:00S 05°16' E 011°33'0 0.8
2017-Sep-19 20:30S 05°16' E 011°33'1 1.2
2017-Sep-19 20:01S 05°15' E 011°34'0 0.8
2017-Sep-19 19:24S 05°15' E 011°34'0 0.8
2017-Sep-19 18:59S 05°15' E 011°35'0 0.8
2017-Sep-19 18:26S 05°16' E 011°35'0 0.7
2017-Sep-19 18:00S 05°16' E 011°35'0 0.7
2017-Sep-19 17:29S 05°16' E 011°36'15 0.4
2017-Sep-17 23:57S 05°02' E 011°41'6 2.7
2017-Sep-17 21:49S 05°07' E 011°38'1 3.0
2017-Sep-17 21:29S 05°08' E 011°37'2 3.2
2017-Sep-17 20:59S 05°09' E 011°36'4 3.2
2017-Sep-17 19:52S 05°12' E 011°34'2 3.3
2017-Sep-17 19:10S 05°14' E 011°33'1 3.3
2017-Sep-17 18:55S 05°14' E 011°32'1 3.3
2017-Sep-17 18:30S 05°15' E 011°31'2 3.4
2017-Sep-17 18:00S 05°17' E 011°30'2 3.3
2017-Sep-17 17:30S 05°18' E 011°29'2 3.2
2017-Sep-17 17:00S 05°19' E 011°29'2 3.3
2017-Sep-17 16:30S 05°21' E 011°28'2 3.2
2017-Sep-17 16:00S 05°22' E 011°27'1 1.0
2017-Sep-17 15:28S 05°23' E 011°27'0 0.0
2017-Sep-17 14:58S 05°23' E 011°27'0 0.0
2017-Sep-17 14:29S 05°23' E 011°27'0 0.0
2017-Sep-17 13:56S 05°23' E 011°27'0 0.1
2017-Sep-17 13:29S 05°23' E 011°27'0 0.2
2017-Sep-17 12:59S 05°23' E 011°27'0 0.5
2017-Sep-17 12:30S 05°23' E 011°27'1 1.3
2017-Sep-17 12:00S 05°22' E 011°27'0 0.0
2017-Sep-17 11:27S 05°22' E 011°27'2 4.7
2017-Sep-17 11:00S 05°20' E 011°29'7 2.1
2017-Sep-17 07:44S 05°17' E 011°34'0 0.8
2017-Sep-17 07:27S 05°17' E 011°34'2 1.5
2017-Sep-17 06:06S 05°15' E 011°35'  
2017-Sep-14 16:10S 05°02' E 011°31'210.2
2017-Sep-14 16:00S 05°04' E 011°30'510.2
2017-Sep-14 15:30S 05°08' E 011°28'5 9.8
2017-Sep-14 15:00S 05°13' E 011°26'4 8.8
2017-Sep-14 14:30S 05°16' E 011°24'1 1.8
2017-Sep-14 14:00S 05°17' E 011°23'0 0.0
2017-Sep-14 13:30S 05°17' E 011°23'0 0.0
2017-Sep-14 13:00S 05°17' E 011°23'0 0.2
2017-Sep-14 12:31S 05°17' E 011°23'0 0.5
2017-Sep-14 12:00S 05°17' E 011°23'4 8.6
2017-Sep-14 11:30S 05°21' E 011°25'2 5.0
2017-Sep-14 11:00S 05°23' E 011°27'0 0.1
2017-Sep-14 10:31S 05°23' E 011°27'0 0.3
2017-Sep-14 09:51S 05°23' E 011°27'0 0.0
2017-Sep-14 09:30S 05°23' E 011°27'0 0.0
2017-Sep-14 09:00S 05°23' E 011°27'0 0.0
2017-Sep-14 08:26S 05°23' E 011°27'0 0.0
2017-Sep-14 07:59S 05°23' E 011°27'0 0.0
2017-Sep-14 07:30S 05°23' E 011°27'0 0.0
2017-Sep-14 07:00S 05°23' E 011°27'0 0.0
2017-Sep-14 06:28S 05°23' E 011°27'0 0.1
2017-Sep-14 06:00S 05°23' E 011°27'0 0.5
2017-Sep-14 05:30S 05°23' E 011°27'1 1.3
2017-Sep-14 05:00S 05°22' E 011°27'0 0.2
2017-Sep-14 04:29S 05°22' E 011°28'0 0.3
2017-Sep-14 04:00S 05°22' E 011°28'0 0.3
2017-Sep-14 03:24S 05°23' E 011°28'0 0.3
2017-Sep-14 03:00S 05°23' E 011°28'0 0.4
2017-Sep-14 02:30S 05°23' E 011°28'2 3.3
2017-Sep-14 02:00S 05°22' E 011°26'2 3.8
2017-Sep-14 01:30S 05°22' E 011°25'0 0.4
2017-Sep-14 01:00S 05°22' E 011°25'0 0.4
2017-Sep-14 00:30S 05°22' E 011°25'0 0.3
2017-Sep-14 00:00S 05°22' E 011°25'0 0.3
2017-Sep-13 23:30S 05°22' E 011°25'0 0.3
2017-Sep-13 23:00S 05°22' E 011°25'0 0.3
2017-Sep-13 22:30S 05°22' E 011°26'0 0.3
2017-Sep-13 22:00S 05°22' E 011°26'0 0.3
2017-Sep-13 21:30S 05°22' E 011°26'0 0.2
2017-Sep-13 21:00S 05°22' E 011°26'0 0.3
2017-Sep-13 20:30S 05°22' E 011°26'0 0.3
2017-Sep-13 20:00S 05°22' E 011°26'0 0.3
2017-Sep-13 19:30S 05°22' E 011°26'0 0.3
2017-Sep-13 19:00S 05°22' E 011°27'0 0.3
2017-Sep-13 18:30S 05°22' E 011°27'0 0.3
2017-Sep-13 18:00S 05°22' E 011°27'0 0.3
2017-Sep-13 17:30S 05°22' E 011°27'0 0.5
2017-Sep-13 17:00S 05°22' E 011°27'1 1.2
2017-Sep-13 16:28S 05°23' E 011°27'0 0.0
2017-Sep-13 15:54S 05°23' E 011°27'0 0.0
2017-Sep-13 15:26S 05°23' E 011°27'0 0.5
2017-Sep-13 15:00S 05°23' E 011°27'1 2.6
2017-Sep-13 14:27S 05°22' E 011°28'5 9.3
2017-Sep-13 13:58S 05°18' E 011°31'5 5.7
2017-Sep-13 13:06S 05°15' E 011°34'0 2.0
2017-Sep-13 12:58S 05°15' E 011°35'0 0.3
2017-Sep-13 12:30S 05°15' E 011°35'0 0.0
2017-Sep-13 11:54S 05°15' E 011°35'0 0.2
2017-Sep-13 11:30S 05°15' E 011°35'1 1.1
2017-Sep-13 10:49S 05°15' E 011°34'0 0.3
2017-Sep-13 10:28S 05°15' E 011°34'0 0.3
2017-Sep-13 09:53S 05°15' E 011°34'1 3.4
2017-Sep-13 09:30S 05°16' E 011°34'0 0.0
2017-Sep-13 08:57S 05°16' E 011°34'0 0.0
2017-Sep-13 07:46S 05°16' E 011°34'0 0.1
2017-Sep-13 07:27S 05°17' E 011°34'0 0.1
2017-Sep-13 06:57S 05°17' E 011°34'1 1.0
2017-Sep-13 06:25S 05°17' E 011°34'4 5.7
2017-Sep-13 05:46S 05°15' E 011°31'2 6.5
2017-Sep-13 05:25S 05°15' E 011°29'2 5.9
2017-Sep-13 05:00S 05°15' E 011°26'3 6.0
2017-Sep-13 04:30S 05°14' E 011°23'3 6.2
2017-Sep-13 04:00S 05°14' E 011°20'3 5.4
2017-Sep-13 03:30S 05°13' E 011°18'0 0.9
2017-Sep-13 03:00S 05°13' E 011°18'0 0.2
2017-Sep-13 02:31S 05°13' E 011°18'0 0.4
2017-Sep-13 02:00S 05°13' E 011°18'1 1.3
2017-Sep-13 01:30S 05°13' E 011°18'0 0.7
2017-Sep-13 01:00S 05°13' E 011°19'5 9.3
2017-Sep-13 00:30S 05°09' E 011°22'5 9.2
2017-Sep-12 23:59S 05°06' E 011°25'7 0.5
2017-Sep-12 10:42S 05°02' E 011°31'2 9.9
2017-Sep-12 10:29S 05°04' E 011°30'5 9.9
2017-Sep-12 10:00S 05°08' E 011°28'5 9.9
2017-Sep-12 09:30S 05°13' E 011°25'5 9.2
2017-Sep-12 08:57S 05°17' E 011°23'0 0.6
2017-Sep-12 08:30S 05°17' E 011°23'0 0.0
2017-Sep-12 08:00S 05°17' E 011°23'0 0.0
2017-Sep-12 07:25S 05°17' E 011°23'0 0.0
2017-Sep-12 07:00S 05°17' E 011°23'0 0.0
2017-Sep-12 06:30S 05°17' E 011°23'0 0.0
2017-Sep-12 06:00S 05°17' E 011°23'0 0.1
2017-Sep-12 05:30S 05°17' E 011°23'0 0.0
2017-Sep-12 05:00S 05°17' E 011°23'0 0.3
2017-Sep-12 04:30S 05°17' E 011°23'0 0.9
2017-Sep-12 04:00S 05°17' E 011°23'0 0.3
2017-Sep-12 03:30S 05°17' E 011°23'0 0.4
2017-Sep-12 03:00S 05°17' E 011°23'0 0.3
2017-Sep-12 02:30S 05°17' E 011°24'1 1.1
2017-Sep-12 02:00S 05°17' E 011°23'0 0.4
2017-Sep-12 01:30S 05°17' E 011°23'1 1.7
2017-Sep-12 01:00S 05°16' E 011°24'0 0.3
2017-Sep-12 00:30S 05°16' E 011°24'0 0.2
2017-Sep-12 00:00S 05°16' E 011°24'0 0.2
2017-Sep-11 23:30S 05°16' E 011°24'0 0.2
2017-Sep-11 23:00S 05°16' E 011°24'0 0.4
2017-Sep-11 22:30S 05°16' E 011°24'0 0.4
2017-Sep-11 22:00S 05°16' E 011°24'0 0.3
2017-Sep-11 21:30S 05°16' E 011°25'0 0.2
2017-Sep-11 21:00S 05°16' E 011°25'0 0.3
2017-Sep-11 20:30S 05°16' E 011°25'0 0.5
2017-Sep-11 20:00S 05°16' E 011°24'1 1.5
2017-Sep-11 19:30S 05°16' E 011°25'3 5.8
2017-Sep-11 19:00S 05°17' E 011°28'3 5.9
2017-Sep-11 18:30S 05°17' E 011°31'3 5.4
2017-Sep-11 17:54S 05°17' E 011°34'0 0.2
2017-Sep-11 16:46S 05°16' E 011°34'0 0.2
2017-Sep-11 16:27S 05°17' E 011°34'0 0.5
2017-Sep-11 15:55S 05°17' E 011°34'  
Track history (hours):
 
Tides and Currents Weather Stations Pressure Air Temp Water Temp Dewpoint Dewpoint Depression Visibility Wind Speed Wind Dir Waves Ship Positions

Bourbon Liberty 309

Last reported at 2017-Sep-20 21:01 UTC. Time now 2017-Sep-20 23:47 UTC.
Position S 05°18' E 011°28'.

Length 66 m; draft 4.5 m.

Type: Other ship. MMSI: 228057800.

Date/timePositionNaut miles runAvg speedWind from/ knotsBaromVisibWave heightAir tempDewpointWater temp
2017-Sep-20 21:01S 05°18' E 011°28'2 4.3
2017-Sep-20 20:30S 05°19' E 011°27'2 4.3
2017-Sep-20 20:00S 05°20' E 011°25'0 0.3
2017-Sep-20 19:31S 05°21' E 011°25'0 0.5
2017-Sep-20 19:00S 05°21' E 011°25'0 0.5
2017-Sep-20 18:30S 05°21' E 011°26'0 0.5
2017-Sep-20 17:59S 05°21' E 011°26'2 3.5
2017-Sep-20 17:27S 05°22' E 011°27'0 0.9
2017-Sep-20 16:57S 05°23' E 011°27'0 0.0
2017-Sep-20 16:30S 05°23' E 011°27'0 0.0
2017-Sep-20 15:55S 05°23' E 011°27'0 0.0
2017-Sep-20 15:29S 05°23' E 011°27'0 0.0
2017-Sep-20 15:00S 05°23' E 011°27'0 0.4
2017-Sep-20 14:00S 05°23' E 011°27'0 0.9
2017-Sep-20 13:30S 05°22' E 011°27'0 0.4
2017-Sep-20 13:01S 05°22' E 011°27'0 0.4
2017-Sep-20 12:30S 05°23' E 011°27'0 0.4
2017-Sep-20 12:00S 05°23' E 011°27'0 0.9
2017-Sep-20 11:30S 05°23' E 011°27'2 4.9
2017-Sep-20 11:00S 05°21' E 011°29'2 4.2
2017-Sep-20 10:30S 05°19' E 011°30'2 4.1
2017-Sep-20 09:59S 05°18' E 011°32'2 3.3
2017-Sep-20 09:28S 05°17' E 011°34'1 0.2
2017-Sep-20 06:14S 05°17' E 011°34'0 0.9
2017-Sep-20 05:59S 05°17' E 011°34'0 0.7
2017-Sep-20 05:25S 05°16' E 011°34'0 0.2
2017-Sep-20 05:00S 05°16' E 011°34'1 2.8
2017-Sep-20 04:27S 05°15' E 011°33'0 0.6
2017-Sep-20 03:55S 05°15' E 011°34'0 0.6
2017-Sep-20 03:30S 05°16' E 011°34'0 0.5
2017-Sep-20 02:57S 05°16' E 011°34'0 0.6
2017-Sep-20 02:30S 05°16' E 011°34'0 0.4
2017-Sep-20 01:19S 05°15' E 011°34'0 0.6
2017-Sep-20 00:36S 05°15' E 011°34'0 0.6
2017-Sep-20 00:24S 05°15' E 011°34'0 0.6
2017-Sep-19 23:58S 05°15' E 011°35'1 2.5
2017-Sep-19 23:30S 05°16' E 011°34'2 3.7
2017-Sep-19 23:00S 05°16' E 011°32'0 0.7
2017-Sep-19 22:30S 05°16' E 011°32'0 0.7
2017-Sep-19 22:00S 05°16' E 011°32'0 0.6
2017-Sep-19 21:30S 05°16' E 011°33'0 0.6
2017-Sep-19 21:00S 05°16' E 011°33'0 0.8
2017-Sep-19 20:30S 05°16' E 011°33'1 1.2
2017-Sep-19 20:01S 05°15' E 011°34'0 0.8
2017-Sep-19 19:24S 05°15' E 011°34'0 0.8
2017-Sep-19 18:59S 05°15' E 011°35'0 0.8
2017-Sep-19 18:26S 05°16' E 011°35'0 0.7
2017-Sep-19 18:00S 05°16' E 011°35'0 0.7
2017-Sep-19 17:29S 05°16' E 011°36'15 0.4
2017-Sep-17 23:57S 05°02' E 011°41'6 2.7
2017-Sep-17 21:49S 05°07' E 011°38'1 3.0
2017-Sep-17 21:29S 05°08' E 011°37'2 3.2
2017-Sep-17 20:59S 05°09' E 011°36'4 3.2
2017-Sep-17 19:52S 05°12' E 011°34'2 3.3
2017-Sep-17 19:10S 05°14' E 011°33'1 3.3
2017-Sep-17 18:55S 05°14' E 011°32'1 3.3
2017-Sep-17 18:30S 05°15' E 011°31'2 3.4
2017-Sep-17 18:00S 05°17' E 011°30'2 3.3
2017-Sep-17 17:30S 05°18' E 011°29'2 3.2
2017-Sep-17 17:00S 05°19' E 011°29'2 3.3
2017-Sep-17 16:30S 05°21' E 011°28'2 3.2
2017-Sep-17 16:00S 05°22' E 011°27'1 1.0
2017-Sep-17 15:28S 05°23' E 011°27'0 0.0
2017-Sep-17 14:58S 05°23' E 011°27'0 0.0
2017-Sep-17 14:29S 05°23' E 011°27'0 0.0
2017-Sep-17 13:56S 05°23' E 011°27'0 0.1
2017-Sep-17 13:29S 05°23' E 011°27'0 0.2
2017-Sep-17 12:59S 05°23' E 011°27'0 0.5
2017-Sep-17 12:30S 05°23' E 011°27'1 1.3
2017-Sep-17 12:00S 05°22' E 011°27'0 0.0
2017-Sep-17 11:27S 05°22' E 011°27'2 4.7
2017-Sep-17 11:00S 05°20' E 011°29'7 2.1
2017-Sep-17 07:44S 05°17' E 011°34'0 0.8
2017-Sep-17 07:27S 05°17' E 011°34'2 1.5
2017-Sep-17 06:06S 05°15' E 011°35'  
2017-Sep-14 16:10S 05°02' E 011°31'210.2
2017-Sep-14 16:00S 05°04' E 011°30'510.2
2017-Sep-14 15:30S 05°08' E 011°28'5 9.8
2017-Sep-14 15:00S 05°13' E 011°26'4 8.8
2017-Sep-14 14:30S 05°16' E 011°24'1 1.8
2017-Sep-14 14:00S 05°17' E 011°23'0 0.0
2017-Sep-14 13:30S 05°17' E 011°23'0 0.0
2017-Sep-14 13:00S 05°17' E 011°23'0 0.2
2017-Sep-14 12:31S 05°17' E 011°23'0 0.5
2017-Sep-14 12:00S 05°17' E 011°23'4 8.6
2017-Sep-14 11:30S 05°21' E 011°25'2 5.0
2017-Sep-14 11:00S 05°23' E 011°27'0 0.1
2017-Sep-14 10:31S 05°23' E 011°27'0 0.3
2017-Sep-14 09:51S 05°23' E 011°27'0 0.0
2017-Sep-14 09:30S 05°23' E 011°27'0 0.0
2017-Sep-14 09:00S 05°23' E 011°27'0 0.0
2017-Sep-14 08:26S 05°23' E 011°27'0 0.0
2017-Sep-14 07:59S 05°23' E 011°27'0 0.0
2017-Sep-14 07:30S 05°23' E 011°27'0 0.0
2017-Sep-14 07:00S 05°23' E 011°27'0 0.0
2017-Sep-14 06:28S 05°23' E 011°27'0 0.1
2017-Sep-14 06:00S 05°23' E 011°27'0 0.5
2017-Sep-14 05:30S 05°23' E 011°27'1 1.3
2017-Sep-14 05:00S 05°22' E 011°27'0 0.2
2017-Sep-14 04:29S 05°22' E 011°28'0 0.3
2017-Sep-14 04:00S 05°22' E 011°28'0 0.3
2017-Sep-14 03:24S 05°23' E 011°28'0 0.3
2017-Sep-14 03:00S 05°23' E 011°28'0 0.4
2017-Sep-14 02:30S 05°23' E 011°28'2 3.3
2017-Sep-14 02:00S 05°22' E 011°26'2 3.8
2017-Sep-14 01:30S 05°22' E 011°25'0 0.4
2017-Sep-14 01:00S 05°22' E 011°25'0 0.4
2017-Sep-14 00:30S 05°22' E 011°25'0 0.3
2017-Sep-14 00:00S 05°22' E 011°25'0 0.3
2017-Sep-13 23:30S 05°22' E 011°25'0 0.3
2017-Sep-13 23:00S 05°22' E 011°25'0 0.3
2017-Sep-13 22:30S 05°22' E 011°26'0 0.3
2017-Sep-13 22:00S 05°22' E 011°26'0 0.3
2017-Sep-13 21:30S 05°22' E 011°26'0 0.2
2017-Sep-13 21:00S 05°22' E 011°26'0 0.3
2017-Sep-13 20:30S 05°22' E 011°26'0 0.3
2017-Sep-13 20:00S 05°22' E 011°26'0 0.3
2017-Sep-13 19:30S 05°22' E 011°26'0 0.3
2017-Sep-13 19:00S 05°22' E 011°27'0 0.3
2017-Sep-13 18:30S 05°22' E 011°27'0 0.3
2017-Sep-13 18:00S 05°22' E 011°27'0 0.3
2017-Sep-13 17:30S 05°22' E 011°27'0 0.5
2017-Sep-13 17:00S 05°22' E 011°27'1 1.2
2017-Sep-13 16:28S 05°23' E 011°27'0 0.0
2017-Sep-13 15:54S 05°23' E 011°27'0 0.0
2017-Sep-13 15:26S 05°23' E 011°27'0 0.5
2017-Sep-13 15:00S 05°23' E 011°27'1 2.6
2017-Sep-13 14:27S 05°22' E 011°28'5 9.3
2017-Sep-13 13:58S 05°18' E 011°31'5 5.7
2017-Sep-13 13:06S 05°15' E 011°34'0 2.0
2017-Sep-13 12:58S 05°15' E 011°35'0 0.3
2017-Sep-13 12:30S 05°15' E 011°35'0 0.0
2017-Sep-13 11:54S 05°15' E 011°35'0 0.2
2017-Sep-13 11:30S 05°15' E 011°35'1 1.1
2017-Sep-13 10:49S 05°15' E 011°34'0 0.3
2017-Sep-13 10:28S 05°15' E 011°34'0 0.3
2017-Sep-13 09:53S 05°15' E 011°34'1 3.4
2017-Sep-13 09:30S 05°16' E 011°34'0 0.0
2017-Sep-13 08:57S 05°16' E 011°34'0 0.0
2017-Sep-13 07:46S 05°16' E 011°34'0 0.1
2017-Sep-13 07:27S 05°17' E 011°34'0 0.1
2017-Sep-13 06:57S 05°17' E 011°34'1 1.0
2017-Sep-13 06:25S 05°17' E 011°34'4 5.7
2017-Sep-13 05:46S 05°15' E 011°31'2 6.5
2017-Sep-13 05:25S 05°15' E 011°29'2 5.9
2017-Sep-13 05:00S 05°15' E 011°26'3 6.0
2017-Sep-13 04:30S 05°14' E 011°23'3 6.2
2017-Sep-13 04:00S 05°14' E 011°20'3 5.4
2017-Sep-13 03:30S 05°13' E 011°18'0 0.9
2017-Sep-13 03:00S 05°13' E 011°18'0 0.2
2017-Sep-13 02:31S 05°13' E 011°18'0 0.4
2017-Sep-13 02:00S 05°13' E 011°18'1 1.3
2017-Sep-13 01:30S 05°13' E 011°18'0 0.7
2017-Sep-13 01:00S 05°13' E 011°19'5 9.3
2017-Sep-13 00:30S 05°09' E 011°22'5 9.2
2017-Sep-12 23:59S 05°06' E 011°25'7 0.5
2017-Sep-12 10:42S 05°02' E 011°31'2 9.9
2017-Sep-12 10:29S 05°04' E 011°30'5 9.9
2017-Sep-12 10:00S 05°08' E 011°28'5 9.9
2017-Sep-12 09:30S 05°13' E 011°25'5 9.2
2017-Sep-12 08:57S 05°17' E 011°23'0 0.6
2017-Sep-12 08:30S 05°17' E 011°23'0 0.0
2017-Sep-12 08:00S 05°17' E 011°23'0 0.0
2017-Sep-12 07:25S 05°17' E 011°23'0 0.0
2017-Sep-12 07:00S 05°17' E 011°23'0 0.0
2017-Sep-12 06:30S 05°17' E 011°23'0 0.0
2017-Sep-12 06:00S 05°17' E 011°23'0 0.1
2017-Sep-12 05:30S 05°17' E 011°23'0 0.0
2017-Sep-12 05:00S 05°17' E 011°23'0 0.3
2017-Sep-12 04:30S 05°17' E 011°23'0 0.9
2017-Sep-12 04:00S 05°17' E 011°23'0 0.3
2017-Sep-12 03:30S 05°17' E 011°23'0 0.4
2017-Sep-12 03:00S 05°17' E 011°23'0 0.3
2017-Sep-12 02:30S 05°17' E 011°24'1 1.1
2017-Sep-12 02:00S 05°17' E 011°23'0 0.4
2017-Sep-12 01:30S 05°17' E 011°23'1 1.7
2017-Sep-12 01:00S 05°16' E 011°24'0 0.3
2017-Sep-12 00:30S 05°16' E 011°24'0 0.2
2017-Sep-12 00:00S 05°16' E 011°24'0 0.2
2017-Sep-11 23:30S 05°16' E 011°24'0 0.2
2017-Sep-11 23:00S 05°16' E 011°24'0 0.4
2017-Sep-11 22:30S 05°16' E 011°24'0 0.4
2017-Sep-11 22:00S 05°16' E 011°24'0 0.3
2017-Sep-11 21:30S 05°16' E 011°25'0 0.2
2017-Sep-11 21:00S 05°16' E 011°25'0 0.3
2017-Sep-11 20:30S 05°16' E 011°25'0 0.5
2017-Sep-11 20:00S 05°16' E 011°24'1 1.5
2017-Sep-11 19:30S 05°16' E 011°25'3 5.8
2017-Sep-11 19:00S 05°17' E 011°28'3 5.9
2017-Sep-11 18:30S 05°17' E 011°31'3 5.4
2017-Sep-11 17:54S 05°17' E 011°34'0 0.2
2017-Sep-11 16:46S 05°16' E 011°34'0 0.2
2017-Sep-11 16:27S 05°17' E 011°34'0 0.5
2017-Sep-11 15:55S 05°17' E 011°34'  

Dump ship's entire track history